Terminal Aerodrome Forecast
Issued by NWS Twin Cities, MN

Home | Current Version | Previous Version | Text Only | Print | Product List | Glossary Off
Versions: 1 2 3 4 5 6 7 8 9 10 11 12 13 14 15 16 17

000
FTUS43 KMPX 011423 AAA
TAFEAU
TAF AMD
KEAU 011423Z 0114/0212 19008KT 5SM -SN OVC013
     FM011700 25009KT P6SM SCT100
     FM012100 29009G15KT P6SM SCT050
     FM020400 28008KT P6SM SKC=

USA.gov is the U.S. government's official web portal to all federal, state and local government web resources and services.